Galich, Russia
Current Conditions -  °F | °C
As of 4:30 PM on Friday 19 Dec 2014 (Local Time) from UUDL Reporting Station
Overcast Overcast  
Wind Chill: 26°   Ceiling: 1500
Heat Index: 32°   Visibility: 6mi
Dew Point: 28°   Wind: 7mph
Humidity: 87%   Direction: 160°SSE
Pressure: 29.59"   Gusts: NA
Location:  58.38°N, 42.35°E
Report Text: UUDL 191330Z 16003MPS 9999 OVC015 00/M02 Q1002 NOSIG RMK QFE74323290554
Loading
Personal Weather Stations






























Interactive Weather Map New forecast layout! Learn more

10-Day Weather Forecast

Advertisements
Track Severe Weather on mobile